createdAt,value
2017-11-19T09:42:54.187Z,78.99
2017-11-19T09:45:21.823Z,78.54
2017-11-19T09:47:49.304Z,77.22
2017-11-19T09:50:16.870Z,77.56
2017-11-19T09:52:44.397Z,76.87
2017-11-19T09:55:11.925Z,75.74
2017-11-19T09:57:39.712Z,76.66
2017-11-19T10:00:07.233Z,75.45
2017-11-19T10:02:34.789Z,75.23
2017-11-19T10:05:02.466Z,76.57
2017-11-19T10:07:30.036Z,75.83
2017-11-19T10:09:57.987Z,75.19
2017-11-19T10:12:25.703Z,74.31
2017-11-19T10:14:53.284Z,76.03
2017-11-19T10:17:20.854Z,75.76
2017-11-19T10:19:48.414Z,76.06
2017-11-19T10:22:15.958Z,77.25
2017-11-19T10:24:43.533Z,74.87
2017-11-19T10:27:11.211Z,74.78
2017-11-19T10:29:38.749Z,75.05
2017-11-19T10:32:07.211Z,75.57
2017-11-19T10:34:34.718Z,74.74
2017-11-19T10:37:02.254Z,73.42
2017-11-19T10:39:29.773Z,73.49
2017-11-19T10:41:57.933Z,74.54
2017-11-19T10:44:25.532Z,73.17
2017-11-19T10:46:53.074Z,73.39
2017-11-19T10:49:20.730Z,72.91
2017-11-19T10:51:48.350Z,74.22
2017-11-19T10:54:15.889Z,73.29
2017-11-19T10:56:43.438Z,72.80
2017-11-19T10:59:11.459Z,70.71
2017-11-19T11:01:39.057Z,68.61
2017-11-19T11:04:06.630Z,66.64
2017-11-19T11:06:34.250Z,65.20
2017-11-19T11:09:01.926Z,66.67
2017-11-19T11:11:30.422Z,63.99
2017-11-19T11:13:58.068Z,63.42
2017-11-19T11:16:25.725Z,64.25
2017-11-19T11:18:53.297Z,65.24
2017-11-19T11:21:22.736Z,65.47
2017-11-19T11:23:50.344Z,63.26
2017-11-19T11:26:18.157Z,57.84
2017-11-19T11:28:46.801Z,55.01
2017-11-19T11:31:16.567Z,50.81
2017-11-19T11:33:45.113Z,51.62
2017-11-19T11:36:13.470Z,47.81
2017-11-19T11:38:41.863Z,50.53
2017-11-19T11:41:09.848Z,50.28
2017-11-19T11:43:38.537Z,51.64
2017-11-19T11:46:08.496Z,48.22
2017-11-19T11:48:37.609Z,48.13
2017-11-19T11:51:05.667Z,47.50
2017-11-19T11:53:35.892Z,46.01
2017-11-19T11:59:03.284Z,43.77
2017-11-19T12:01:34.244Z,44.16
2017-11-19T12:10:45.279Z,48.55
2017-11-19T12:13:14.176Z,50.53
2017-11-19T12:15:42.585Z,50.06
2017-11-19T12:18:32.432Z,52.37
2017-11-19T12:21:01.006Z,48.40
2017-11-19T12:23:29.611Z,46.17
2017-11-19T12:26:04.082Z,48.42
2017-11-19T12:28:38.394Z,47.46
2017-11-19T12:31:06.454Z,50.03
2017-11-19T12:33:36.351Z,50.14
2017-11-19T12:36:05.723Z,50.95
2017-11-19T12:38:35.035Z,50.04
2017-11-19T12:41:06.506Z,49.01
2017-11-19T12:43:34.561Z,47.91
2017-11-19T12:46:02.773Z,49.44
2017-11-19T12:48:33.518Z,48.76
2017-11-19T12:51:19.215Z,46.92
2017-11-19T12:54:18.165Z,47.03
2017-11-19T12:56:55.734Z,47.73
2017-11-19T13:02:28.482Z,49.65
2017-11-19T13:05:04.366Z,50.75
2017-11-19T13:25:07.061Z,53.77
2017-11-19T13:27:34.951Z,54.11
2017-11-19T13:30:10.659Z,52.03
2017-11-19T13:35:45.791Z,52.29
2017-11-19T13:38:17.269Z,52.77
2017-11-19T13:43:34.688Z,54.57
2017-11-19T13:46:02.592Z,54.04
2017-11-19T13:48:30.651Z,54.07
2017-11-19T13:53:33.261Z,53.83
2017-11-19T13:56:22.221Z,54.00
2017-11-19T13:58:59.941Z,53.64
2017-11-19T14:01:38.188Z,55.40
2017-11-19T14:06:59.093Z,54.45
2017-11-19T14:09:40.340Z,55.62
2017-11-19T14:15:32.777Z,54.54
2017-11-19T14:34:02.505Z,58.26
2017-11-19T14:36:30.977Z,58.41
2017-11-19T14:39:01.177Z,58.69
2017-11-19T15:54:18.983Z,64.15
2017-11-19T15:56:47.518Z,64.40
2017-11-19T15:59:15.115Z,64.15
2017-11-19T16:01:42.985Z,64.45
2017-11-19T16:04:12.627Z,67.03
2017-11-19T16:06:40.219Z,67.59
2017-11-19T16:09:07.826Z,66.76
2017-11-19T16:11:35.422Z,66.21
2017-11-19T16:14:03.017Z,65.37
2017-11-19T16:16:30.688Z,64.90
2017-11-19T16:18:59.317Z,65.60
2017-11-19T16:21:28.013Z,65.14
2017-11-19T16:23:55.630Z,65.35
2017-11-19T16:26:25.281Z,66.36
2017-11-19T16:28:53.842Z,65.23
2017-11-19T16:31:22.903Z,65.54
2017-11-19T16:33:51.429Z,65.31
2017-11-19T16:36:20.062Z,65.31
2017-11-19T16:38:48.879Z,65.98
2017-11-19T16:41:16.800Z,65.69
2017-11-19T16:43:44.794Z,65.65
2017-11-19T16:46:12.693Z,65.85
2017-11-19T16:48:40.929Z,66.80
2017-11-19T16:51:11.487Z,66.72
2017-11-19T16:53:39.269Z,66.66
2017-11-19T16:56:07.121Z,66.42
2017-11-19T16:58:36.062Z,67.20
2017-11-19T17:01:03.892Z,67.52
2017-11-19T17:03:33.027Z,67.70
2017-11-19T17:06:01.624Z,67.85
2017-11-19T17:08:29.455Z,67.55
2017-11-19T17:10:57.649Z,67.58
2017-11-19T17:13:25.287Z,67.90
2017-11-19T17:15:53.363Z,67.08
2017-11-19T17:18:22.217Z,66.84
2017-11-19T17:20:50.773Z,67.84
2017-11-19T17:23:20.579Z,67.69
2017-11-19T17:25:50.116Z,67.86
2017-11-19T17:28:20.293Z,68.25
2017-11-19T17:30:55.885Z,67.65
2017-11-19T17:33:25.572Z,67.88
2017-11-19T17:39:09.419Z,67.88
2017-11-19T17:41:37.147Z,68.04
2017-11-19T17:46:41.870Z,68.08
2017-11-19T17:49:12.542Z,68.42
2017-11-19T17:51:44.057Z,68.37
2017-11-19T17:54:19.386Z,67.82
2017-11-19T17:56:47.660Z,67.59
2017-11-19T17:59:19.261Z,68.08
2017-11-19T18:01:48.528Z,68.57
2017-11-19T18:04:16.239Z,69.07
2017-11-19T18:06:45.363Z,68.31
2017-11-19T18:09:14.596Z,68.58
2017-11-19T18:11:43.761Z,68.59
2017-11-19T18:16:47.343Z,68.72
2017-11-19T18:19:17.193Z,69.25
2017-11-19T18:21:46.873Z,69.58
2017-11-19T18:24:16.188Z,69.18
2017-11-19T18:26:45.152Z,68.88
2017-11-19T18:29:20.349Z,69.20
2017-11-19T18:31:48.889Z,69.03
2017-11-19T18:34:21.783Z,69.38
2017-11-19T18:36:51.581Z,69.55
2017-11-19T18:39:19.553Z,69.58
2017-11-19T18:41:49.536Z,69.93
2017-11-19T18:44:18.092Z,70.16
2017-11-19T18:46:47.129Z,70.20
2017-11-19T18:49:15.229Z,70.43
2017-11-19T18:51:45.085Z,71.52
2017-11-19T18:54:13.491Z,70.89
2017-11-19T18:56:42.481Z,70.67
2017-11-19T18:59:13.182Z,70.96
2017-11-19T19:01:47.151Z,70.60
2017-11-19T19:04:20.997Z,70.88
2017-11-19T19:06:54.111Z,71.12
2017-11-19T19:09:25.424Z,70.73
2017-11-19T19:11:54.224Z,71.02
2017-11-19T19:14:24.702Z,71.05
2017-11-19T19:19:47.008Z,71.39
2017-11-19T19:22:22.966Z,71.42
2017-11-19T19:24:51.867Z,71.92
2017-11-19T19:27:19.990Z,71.72
2017-11-19T19:29:47.895Z,71.57
2017-11-19T19:32:18.016Z,71.79
2017-11-19T19:34:46.297Z,71.48
2017-11-19T19:37:17.068Z,71.68
2017-11-19T19:39:45.113Z,71.47
2017-11-19T19:42:12.774Z,71.57
2017-11-19T19:44:40.589Z,71.43
2017-11-19T19:47:08.713Z,71.46
2017-11-19T19:49:37.661Z,71.17
2017-11-19T19:52:09.414Z,70.70
2017-11-19T19:54:38.551Z,71.05
2017-11-19T19:57:10.804Z,70.87
2017-11-19T19:59:42.637Z,71.01
2017-11-19T20:02:12.780Z,70.68
2017-11-19T20:04:51.083Z,70.75
2017-11-19T20:07:20.132Z,70.33
2017-11-19T20:09:49.382Z,70.85
2017-11-19T20:12:20.410Z,70.88
2017-11-19T20:14:53.363Z,70.62
2017-11-19T20:17:25.620Z,70.53
2017-11-19T20:19:57.873Z,70.17
2017-11-19T20:22:26.159Z,70.06
2017-11-19T20:24:53.915Z,70.25
2017-11-19T20:27:22.520Z,69.68
2017-11-19T20:29:50.928Z,69.89
2017-11-19T20:32:21.796Z,69.56
2017-11-19T20:34:53.518Z,69.76
2017-11-19T20:37:23.151Z,70.21
2017-11-19T20:39:56.494Z,70.15
2017-11-19T20:42:25.832Z,70.54
2017-11-19T20:44:55.168Z,69.88
2017-11-19T20:47:25.003Z,69.71
2017-11-19T20:49:53.217Z,70.02
2017-11-19T20:52:22.478Z,69.96
2017-11-19T20:54:51.750Z,69.61
2017-11-19T20:57:19.776Z,69.49
2017-11-19T20:59:48.951Z,69.63
2017-11-19T21:02:16.786Z,69.79
2017-11-19T21:04:44.834Z,69.59
2017-11-19T21:07:14.142Z,69.69
2017-11-19T21:09:42.062Z,69.59
2017-11-19T21:12:10.176Z,69.82
2017-11-19T21:14:38.041Z,69.50
2017-11-19T21:17:05.689Z,69.67
2017-11-19T21:19:33.585Z,69.57
2017-11-19T21:22:01.565Z,69.58
2017-11-19T21:24:29.448Z,69.31
2017-11-19T21:26:57.399Z,69.62
2017-11-19T21:29:26.160Z,69.01
2017-11-19T21:31:53.973Z,69.17
2017-11-19T21:34:22.292Z,69.52
2017-11-19T21:36:52.528Z,69.86
2017-11-19T21:39:20.503Z,69.48
2017-11-19T21:41:48.778Z,70.54
2017-11-19T21:44:16.820Z,69.75
2017-11-19T21:46:45.498Z,69.71
2017-11-19T21:49:15.044Z,69.88
2017-11-19T21:51:43.617Z,69.43
2017-11-19T21:54:11.226Z,69.67
2017-11-19T21:56:40.381Z,69.55
2017-11-19T21:59:09.688Z,69.90
2017-11-19T22:01:41.174Z,69.58
2017-11-19T22:04:10.231Z,69.46
2017-11-19T22:06:39.442Z,69.61
2017-11-19T22:09:07.388Z,69.58
2017-11-19T22:11:35.046Z,69.69
2017-11-19T22:14:03.039Z,69.84
2017-11-19T22:16:30.919Z,70.10
2017-11-19T22:18:58.705Z,69.95
2017-11-19T22:21:30.232Z,69.74
2017-11-19T22:23:58.236Z,69.70
2017-11-19T22:26:26.567Z,69.60
2017-11-19T22:28:56.243Z,69.61
2017-11-19T22:31:25.269Z,69.45
2017-11-19T22:33:54.405Z,70.46
2017-11-19T22:36:22.442Z,69.95
2017-11-19T22:38:51.393Z,69.70
2017-11-19T22:41:19.928Z,69.58
2017-11-19T22:43:47.885Z,70.56
2017-11-19T22:46:19.729Z,70.28
2017-11-19T22:48:47.523Z,69.75
2017-11-19T22:51:16.937Z,69.47
2017-11-19T22:53:44.616Z,69.40
2017-11-19T22:56:12.778Z,69.92
2017-11-19T22:58:41.927Z,70.23
2017-11-19T23:01:09.545Z,70.19
2017-11-19T23:03:37.483Z,69.93
2017-11-19T23:06:05.378Z,69.55
2017-11-19T23:08:33.010Z,69.72
2017-11-19T23:11:01.910Z,69.50
2017-11-19T23:13:30.386Z,69.23
2017-11-19T23:15:59.850Z,69.21
2017-11-19T23:18:28.244Z,69.19
2017-11-19T23:20:56.602Z,68.93
2017-11-19T23:23:24.581Z,69.96
2017-11-19T23:25:52.219Z,69.54
2017-11-19T23:28:20.900Z,69.26
2017-11-19T23:30:48.773Z,69.72
2017-11-19T23:33:16.808Z,69.56
2017-11-19T23:35:44.607Z,68.79
2017-11-19T23:38:12.542Z,69.40
2017-11-19T23:40:40.797Z,68.70
2017-11-19T23:43:08.620Z,68.42
2017-11-19T23:45:37.973Z,67.97
2017-11-19T23:48:05.869Z,68.07
2017-11-19T23:50:33.512Z,67.56
2017-11-19T23:53:01.198Z,67.60
2017-11-19T23:55:31.662Z,67.82
2017-11-19T23:58:00.597Z,67.64
